• Join FlightAware (Why Join?)
  • Login
  • US Flag 
07:55PM EDT


 

Airport Tracker/Info


-or-


 

Live Flight TrackerFlight Track Log ✈ RPA3196 ✈ 31-Jul-2013 ✈ KPHL - KBTV

Flight Track Log - Related Links

Times and Time Zones

All times are in EDT time to prevent confusion due to time zone crossing. See the RPA3196 flight status page for this flight to view local times or setup timezone preferences in your user account.

Time Position Orientation Groundspeed Altitude Reporting Facility
EDT Latitude Longitude Course Direction KTS MPH feet Rate Location/Type
09:45AM 39.8667 -75.2833 37° Northeast 164 189 800  Level Philadelphia TRACON
09:46AM 39.8167 -75.3333 218° Southwest 231 266 2,900 2,040 Climbing Philadelphia TRACON
09:47AM 39.8167 -74.8868 90° East  Level FlightAware Approximate
09:47AM 39.7500 -75.3500 191° South 264 304 5,300  Level Philadelphia TRACON
09:48AM 39.7972 -74.7692 105° East  Level FlightAware Approximate
09:48AM 39.7500 -75.2500 90° East 295 339 7,400  Level Philadelphia TRACON
09:49AM 39.8134 -74.6699 37° Northeast  Level FlightAware Approximate
09:49AM 39.7500 -75.1500 90° East 298 343 10,000  Level Philadelphia TRACON
09:50AM 39.8871 -74.5963 37° Northeast  Level FlightAware Approximate
09:50AM 39.7667 -75.0333 79° East 338 389 11,800  Level Philadelphia TRACON
09:52AM 39.7833 -74.8283 84° East 341 392 12,000 720 Climbing New York Center
09:53AM 39.7994 -74.7183 79° East 336 387 13,800 1,860 Climbing New York Center
09:54AM 39.8817 -74.6311 39° Northeast 321 369 15,800 1,860 Climbing New York Center
09:55AM 39.9611 -74.5542 37° Northeast 347 399 17,600 1,380 Climbing New York Center
09:56AM 40.0453 -74.4694 38° Northeast 367 422 18,600 1,080 Climbing New York Center
09:57AM 40.1311 -74.3869 36° Northeast 380 437 19,800 1,320 Climbing New York Center
09:58AM 40.2086 -74.3094 37° Northeast 380 437 21,300 1,380 Climbing New York Center
09:59AM 40.3031 -74.2136 38° Northeast 380 437 22,700 1,260 Climbing New York Center
10:00AM 40.3864 -74.1469 31° Northeast 380 437 23,900 1,200 Climbing New York Center
10:01AM 40.5039 -74.1147 12° North 382 440 25,100 1,200 Climbing New York Center
10:02AM 40.6131 -74.0897 10° North 396 456 26,400 660 Climbing New York Center
10:04AM 40.8031 -74.0494 North 425 489 27,000 180 Climbing Boston Center
10:05AM 40.9158 -74.0222 10° North 425 489 27,000  Level Boston Center
10:06AM 41.0289 -73.9975 North 413 475 27,000  Level Boston Center
10:07AM 41.1478 -73.9700 10° North 407 468 27,000  Level Boston Center
10:08AM 41.2608 -73.9422 10° North 402 463 27,000  Level Boston Center
10:09AM 41.3506 -73.9222 North 402 463 27,000  Level Boston Center
10:10AM 41.4844 -73.8894 10° North 407 468 27,000  Level Boston Center
10:11AM 41.5975 -73.8614 11° North 407 468 27,000  Level Boston Center
10:12AM 41.7311 -73.8308 10° North 412 474 27,000  Level Boston Center
10:13AM 41.8400 -73.8056 10° North 405 466 27,000  Level Boston Center
10:14AM 41.9506 -73.7828 North 405 466 27,000  Level Boston Center
10:15AM 42.0656 -73.7544 10° North 405 466 27,000  Level Boston Center
10:16AM 42.1533 -73.7339 10° North 405 466 27,000  Level Boston Center
10:17AM 42.2683 -73.6969 13° North 420 483 27,000  Level Boston Center
10:18AM 42.4083 -73.6744 North 405 466 27,000  Level Boston Center
10:19AM 42.5189 -73.6514 North 399 459 27,000  Level Boston Center
10:20AM 42.6317 -73.6281 North 399 459 27,000  Level Boston Center
10:21AM 42.7444 -73.6078 North 399 459 27,000  Level Boston Center
10:22AM 42.8742 -73.5789 North 399 459 27,000  Level Boston Center
10:23AM 42.9847 -73.5583 North 399 459 27,000  Level Boston Center
10:24AM 43.0953 -73.5375 North 394 453 27,000  Level Boston Center
10:25AM 43.1936 -73.5194 North 394 453 27,000 -1,020 Level Boston Center
10:26AM 43.3019 -73.5014 North 389 448 25,000 -2,040 Descending Boston Center
10:27AM 43.4086 -73.4803 North 389 448 23,100 -2,040 Descending Boston Center
10:28AM 43.5086 -73.4592 North 378 435 21,000 -2,100 Descending Boston Center
10:29AM 43.6089 -73.4408 North 366 421 18,900 -2,040 Descending Boston Center
10:30AM 43.7133 -73.4225 North 351 404 17,000 -1,920 Descending Boston Center
10:31AM 43.8031 -73.4039 North 330 380 15,200 -1,920 Descending Boston Center
10:32AM 43.8928 -73.4022 North 330 380 13,300 -1,860 Descending Boston Center
10:33AM 43.9800 -73.4267 349° North 323 372 11,500 -1,440 Descending Boston Center
10:34AM 44.0589 -73.4511 347° North 303 349 10,200 -1,560 Descending Boston Center
10:35AM 44.1419 -73.4758 348° North 286 329 8,100 -2,040 Descending Boston Center
10:36AM 44.2147 -73.4972 348° North 272 313 6,100 -1,080 Descending Boston Center
10:37AM 44.2833 -73.5072 354° North 253 291 6,000 -420 Descending Boston Center
10:38AM 44.3481 -73.5114 357° North 243 280 5,300 -1,080 Descending Boston Center
10:39AM 44.4128 -73.5008 North 229 264 3,900 -960 Descending Boston Center
10:40AM 44.4611 -73.4406 42° Northeast 224 258 3,500 -360 Descending Boston Center
10:41AM 44.5056 -73.3803 44° Northeast 224 258 3,300 -480 Descending Boston Center
10:42AM 44.5311 -73.3078 64° Northeast 211 243 2,600 -900 Descending Boston Center
10:43AM 44.5231 -73.2378 99° East 182 209 1,500 -840 Descending Boston Center
10:44AM 44.4983 -73.1997 132° Southeast 138 159 1,000 -540 Descending Boston Center